Benvolgut visitant, si us plau, ingressa Recuperar contrasenya
AVAMET paisatges
Union Alcoyana

Inforatge Albuixec Ajuntament

Dades diàries. Acumulats / Últims 30 dies disponibles

Data Temperatura (°C) Humitat rel. (%) Pressió rel. (hPa) Vent (km/h) Precipitació
Mínima Mitjana Màxima Amplitud
tèrmica
Mínima Mitjana Màxima Mínima Mitjana Màxima Predom. Mitjana Ràfega
màxima
Total
(mm)
Índex-n
Mínima Mitjana Màxima Mínima Mitjana Màxima n
0 a 1
P0 max
mm 5'
Dades mensuals acumulades fins l'últim dia disponible
05/2022 11,3 13,4 15,0 17,5 16,3 20,6 24,8 13,5 42 77 95 1.011 1.020 1.025   8,9 48,3 133,0
Dades anuals acumulades fins l'últim dia disponible
2022 1,1 9,2 15,0 13,0 10,7 17,0 26,2 25,1 21 74 95 999 1.022 1.037   10,1 77,2 430,4
Últims 30 dies disponibles
15-05-2022 13,8     20,0     24,8 11,0 42 70 86 1.017 1.018 1.020 W 7,4 20,9 0,0
14-05-2022 15,0     19,2     22,2 7,2 58 78 87 1.018 1.020 1.023 NE 7,6 24,1 0,0
13-05-2022 14,1     18,3     21,1 7,0 68 81 89 1.022 1.023 1.024 E 7,2 24,1 0,0
12-05-2022 13,7     18,0     20,4 6,7 72 79 87 1.022 1.023 1.024 NNE 7,7 29,0 0,0
11-05-2022 13,4     18,2     21,4 8,0 59 76 82 1.021 1.022 1.024 SE 8,5 30,6 0,0
10-05-2022 12,6     17,8     22,0 9,4 53 72 80 1.023 1.024 1.025 SE 9,2 30,6 0,0
09-05-2022 12,8     18,0     20,9 8,1 54 75 86 1.022 1.023 1.025 ENE 8,4 29,0 0,0
08-05-2022 13,0     17,5     20,7 7,7 59 72 88 1.019 1.020 1.022 W 9,0 29,0 0,0
07-05-2022 12,6     17,4     21,3 8,7 52 69 81 1.020 1.021 1.023 SE 8,5 29,0 0,0
06-05-2022 11,3     16,6     21,2 9,9 49 70 85 1.020 1.022 1.023 SE 7,6 25,7 0,0
05-05-2022 13,9     17,6     21,6 7,7 53 72 90 1.019 1.021 1.023 WNW 8,4 33,8 0,2
04-05-2022 13,8     15,3     17,3 3,5 68 80 88 1.016 1.018 1.020 NNE 15,4 48,3 7,8
03-05-2022 13,5     14,4     16,3 2,8 89 93 95 1.011 1.013 1.015 NNE 12,2 45,1 124,8 0,55 5,80
02-05-2022 13,6     16,4     18,5 4,9 79 86 91 1.012 1.015 1.017 ENE 9,7 33,8 0,2
01-05-2022 13,6     17,1     19,6 6,0 69 82 91 1.017 1.019 1.021 E 6,4 27,4 0,0
30-04-2022 14,2     18,3     23,6 9,4 50 74 85 1.019 1.022 1.025 S 5,7 24,1 0,0
29-04-2022 11,5     17,1     20,8 9,3 55 72 86 1.024 1.025 1.027 WNW 7,7 32,2 0,0
28-04-2022 14,1     15,6     18,1 4,0 63 84 95 1.019 1.021 1.025 NE 7,2 33,8 6,4 0,20
27-04-2022 12,8     15,2     18,6 5,8 60 80 88 1.016 1.018 1.020 WNW 4,5 29,0 0,4
26-04-2022 9,7     14,9     17,9 8,2 66 77 89 1.015 1.016 1.017 WNW 6,6 19,3 0,0
25-04-2022 10,4     15,3     18,3 7,9 58 78 88 1.013 1.014 1.016 ENE 8,9 32,2 0,0
24-04-2022 12,6     18,3     24,9 12,3 31 52 72 1.009 1.011 1.013 SW 15,0 45,1 0,0
23-04-2022 11,8     15,2     19,3 7,5 41 61 85 999 1.003 1.009 WSW 20,0 77,2 1,2 0,20
22-04-2022 10,3     15,2     19,7 9,4 53 74 88 1.000 1.004 1.006 WSW 10,6 35,4 0,0
21-04-2022 10,4     14,1     18,2 7,8 50 70 87 1.005 1.006 1.007 SE 7,4 29,0 0,0
20-04-2022 10,2     12,4     14,8 4,6 74 88 94 999 1.004 1.009 WSW 8,0 72,4 43,6 0,42 1,30
19-04-2022 13,8     15,8     18,1 4,3 75 86 93 1.009 1.012 1.016 ENE 9,3 32,2 1,6
18-04-2022 12,5     16,0     18,7 6,2 71 81 91 1.014 1.017 1.019 NE 9,0 33,8 0,0
17-04-2022 13,4     17,4     21,8 8,4 50 68 80 1.017 1.018 1.020 W 6,9 25,7 0,0
16-04-2022 12,4     18,2     24,4 12,0 42 69 85 1.017 1.020 1.022 SE 6,9 29,0 0,0
Últims 13 mesos disponibles
04/2022 3,7 11,2 14,9 15,0 10,7 18,9 26,2 22,5 41 70 92 1.003 1.015 1.025 WSW 11,1 77,2 79,8
03/2022 6,1 10,1 14,3 12,7 11,6 15,6 23,6 17,5 63 83 94 1.004 1.020 1.027 NNE 14,4 72,4 194,2
02/2022 4,6 8,1 11,9 12,4 13,4 16,7 23,4 18,8 46 73 85 1.018 1.026 1.033 WNW 7,5 51,5 6,2
01/2022 1,1 5,2 13,7 10,0 10,9 15,3 23,7 22,6 46 70 87 1.015 1.028 1.035 WNW 7,9 64,4 17,2
12/2021 5,5 9,4 15,2 13,6 13,8 18,3 24,1 18,6 52 70 89 1.010 1.021 1.031 WSW 10,4 59,5 0,4
11/2021 5,8 10,2 18,6 14,0 12,7 18,2 27,6 21,8 47 66 88 1.006 1.017 1.029 WNW 8,9 61,2 55,8
10/2021 11,8 15,6 20,4 19,5 20,1 23,3 30,1 18,3 59 78 86 1.010 1.020 1.028 WNW 7,9 53,1 20,2
09/2021 15,2 19,9 22,9 23,7 23,1 27,0 30,4 15,2 66 79 86 1.014 1.019 1.026 WNW 8,9 72,4 68,2
08/2021 19,7 22,5 26,3 25,8 26,1 28,8 37,4 17,7 56 77 85 1.008 1.017 1.022 NNE 9,4 67,6 55,2
07/2021 18,5 21,4 23,9 25,1 25,3 28,2 38,8 20,3 49 76 84 1.010 1.016 1.023 SE 9,5 51,5 7,0
06/2021 16,4 19,1 21,7 22,7 21,9 25,8 31,1 14,7 53 74 87 1.011 1.018 1.024 SE 7,6 48,3 22,8
05/2021 11,8 15,2 20,2 18,8 16,7 22,6 34,7 22,9 42 74 88 1.010 1.018 1.025 ESE 8,4 56,3 17,8
04/2021 6,5 11,1 14,8 14,1 12,5 17,2 24,9 18,4 64 79 92 1.008 1.018 1.027 NE 6,4 49,9 77,6
Tots els anys disponibles
2021 0,1 14,2 26,3 17,9 6,8 21,6 38,8 38,7 42 74 92 1.004 1.019 1.036 WNW 8,5 85,3 412,0
2020 0,7 14,1 25,6 18,1 9,4 22,0 32,3 31,6 38 73 92 999 1.020 1.035 W 8,3 83,7 435,8
2019 0,7 13,7 25,8 17,9 10,8 22,0 41,6 40,9 34 69 93 996 1.019 1.036 SSE 8,8 82,1 265,1
2018 1,6 14,1 25,2 18,0 9,1 21,9 36,2 34,6 38 70 93 995 1.018 1.037 OSO 8,4 83,3 530,8
Temperatura (°C)
Humitat relativa (%)
Velocitat del vent i ràfega màxima (km/h)
Direcció del vent (°)
Pressió (hPa)
Precipitació (mm)
Nota sobre les dades: s'avisa a l'usuari de la provisionalitat i no oficialitat d'aquestes dades
Logo AVAMET blanc
Web allotjada a Sollutia
Llicència de Creative CommonsLa web d'AVAMET i els seus continguts estan subjectes a una llicència de
Reconeixement - No Comercial - Compartir igual
Avís legal - Política de privacitat - Política de cookies
NOVES ESTACIONS: Sant Mateu - IES Maestrat (Soci)  / el Palomar (Ajuntament/Soci) / Atzeneta del Maestrat - Pla de Meanes (Ajuntament/Soci) / Onda - Sant Gil (Soci) / Onda - Ràtils CR Cota 220 (Soci) / la Vila Joiosa (Ajuntament/Soci) / Miramar - Platja (Ajuntament/Soci) / Massanassa - IES Massanassa (Soci) / Culla - Pla de les Vinyes (Ajuntament/Soci) / Oliva - Col·legi - El Rebollet / Villena - Hondo de Carboneras (Soci) / Ontinyent - les Aigües (Soci) / Castelló de la Plana - IES Bovalar (Soci) /  Villena - las Quebradas (Soci) / la Salzadella (Ajuntament/Soci)  - - -